createdAt,value
2023-06-09T00:04:54.022Z,18.74
2023-06-09T00:14:55.596Z,18.80
2023-06-09T00:24:57.166Z,18.88
2023-06-09T00:34:58.736Z,18.75
2023-06-09T00:45:00.272Z,18.71
2023-06-09T00:55:01.845Z,18.73
2023-06-09T01:05:03.409Z,18.79
2023-06-09T01:15:05.424Z,18.73
2023-06-09T01:45:09.768Z,18.56
2023-06-09T01:55:11.156Z,18.44
2023-06-09T02:05:12.613Z,18.56
2023-06-09T02:15:14.250Z,18.50
2023-06-09T02:25:15.733Z,18.67
2023-06-09T02:35:17.192Z,18.59
2023-06-09T02:45:18.698Z,18.57
2023-06-09T02:55:20.505Z,18.59
2023-06-09T03:05:21.773Z,18.48
2023-06-09T03:15:23.284Z,18.56
2023-06-09T03:25:24.729Z,18.43
2023-06-09T03:35:26.536Z,18.41
2023-06-09T03:45:27.748Z,18.33
2023-06-09T03:55:29.546Z,18.25
2023-06-09T04:05:30.725Z,18.27
2023-06-09T04:15:32.268Z,18.32
2023-06-09T04:25:33.764Z,18.23
2023-06-09T04:35:36.586Z,18.25
2023-06-09T04:45:36.933Z,18.40
2023-06-09T04:55:38.387Z,18.46
2023-06-09T05:05:40.069Z,18.60
2023-06-09T05:15:41.578Z,18.89
2023-06-09T05:25:43.268Z,18.99
2023-06-09T05:35:44.820Z,18.85
2023-06-09T05:45:46.743Z,18.90
2023-06-09T05:55:48.254Z,18.83
2023-06-09T06:05:50.048Z,18.66
2023-06-09T06:15:51.467Z,18.55
2023-06-09T06:25:53.024Z,18.16
2023-06-09T06:35:54.797Z,17.75
2023-06-09T06:45:56.124Z,17.57
2023-06-09T06:55:57.636Z,17.19
2023-06-09T07:05:59.149Z,16.80
2023-06-09T07:16:00.577Z,16.67
2023-06-09T07:26:02.106Z,16.66
2023-06-09T07:36:03.616Z,17.00
2023-06-09T07:46:05.163Z,17.06
2023-06-09T07:56:06.602Z,17.28
2023-06-09T08:06:08.181Z,17.34
2023-06-09T08:16:09.469Z,17.23
2023-06-09T08:26:10.844Z,17.55
2023-06-09T08:36:12.372Z,17.44
2023-06-09T08:46:13.934Z,17.33
2023-06-09T08:56:15.319Z,17.52
2023-06-09T09:26:19.866Z,18.20
2023-06-09T09:36:21.487Z,18.49
2023-06-09T09:46:23.119Z,18.91
2023-06-09T09:56:24.739Z,19.32
2023-06-09T10:06:26.454Z,19.43
2023-06-09T10:16:28.146Z,19.23
2023-06-09T10:36:31.663Z,19.28
2023-06-09T10:46:33.495Z,19.26
2023-06-09T10:56:35.236Z,19.60
2023-06-09T11:06:37.425Z,19.50
2023-06-09T11:16:38.849Z,19.47
2023-06-09T11:26:43.206Z,19.66
2023-06-09T11:36:44.153Z,19.72
2023-06-09T11:46:44.352Z,19.86
2023-06-09T11:56:45.923Z,20.11
2023-06-09T12:06:47.992Z,20.49
2023-06-09T12:16:49.654Z,20.57
2023-06-09T12:26:51.484Z,20.88
2023-06-09T12:36:53.418Z,20.29
2023-06-09T12:46:55.203Z,20.80
2023-06-09T12:56:57.082Z,20.87
2023-06-09T13:06:59.247Z,20.64
2023-06-09T13:27:02.744Z,21.40
2023-06-09T13:37:04.906Z,21.49
2023-06-09T13:47:06.632Z,21.54
2023-06-09T13:57:11.186Z,21.44
2023-06-09T14:07:10.656Z,21.65
2023-06-09T14:27:14.452Z,21.19
2023-06-09T14:37:16.732Z,21.46
2023-06-09T14:47:18.428Z,21.69
2023-06-09T14:57:20.655Z,21.48
2023-06-09T15:07:22.319Z,21.30
2023-06-09T15:17:24.237Z,21.38
2023-06-09T15:26:33.072Z,21.49
2023-06-09T15:27:26.360Z,21.49
2023-06-09T15:37:28.066Z,21.79
2023-06-09T15:47:30.039Z,21.57
2023-06-09T15:57:33.641Z,21.85
2023-06-09T16:07:33.860Z,22.02
2023-06-09T16:17:35.921Z,22.02
2023-06-09T16:27:37.790Z,21.89
2023-06-09T16:37:39.758Z,21.72
2023-06-09T16:47:41.876Z,21.79
2023-06-09T16:57:43.945Z,21.78
2023-06-09T17:07:45.668Z,21.76
2023-06-09T17:17:47.939Z,21.66
2023-06-09T17:27:49.788Z,21.58
2023-06-09T17:37:53.074Z,21.56
2023-06-09T17:47:53.519Z,21.46
2023-06-09T17:57:55.518Z,21.16
2023-06-09T18:07:57.359Z,21.09
2023-06-09T18:17:59.210Z,21.03
2023-06-09T18:28:02.500Z,20.90
2023-06-09T18:38:02.771Z,20.73
2023-06-09T18:48:04.552Z,20.69
2023-06-09T18:58:06.311Z,20.49
2023-06-09T19:08:08.051Z,20.14
2023-06-09T19:18:10.193Z,19.90
2023-06-09T19:28:11.626Z,19.73
2023-06-09T19:38:13.256Z,19.70
2023-06-09T19:48:15.129Z,19.48
2023-06-09T19:58:16.741Z,19.47
2023-06-09T20:08:18.768Z,19.27
2023-06-09T20:18:20.099Z,19.26
2023-06-09T20:28:21.623Z,19.08
2023-06-09T20:38:23.296Z,18.92
2023-06-09T20:58:26.404Z,18.89
2023-06-09T21:18:29.587Z,18.67
2023-06-09T21:28:31.076Z,18.46
2023-06-09T21:38:32.592Z,18.38
2023-06-09T21:48:34.269Z,18.32
2023-06-09T21:58:35.780Z,18.27
2023-06-09T22:08:39.126Z,18.19
2023-06-09T22:28:40.364Z,17.89
2023-06-09T22:38:41.896Z,17.69
2023-06-09T22:48:43.389Z,17.76
2023-06-09T22:58:45.103Z,17.61
2023-06-09T23:08:46.432Z,17.67
2023-06-09T23:18:47.969Z,17.58
2023-06-09T23:28:49.458Z,17.44
2023-06-09T23:38:50.969Z,17.33
2023-06-09T23:48:52.495Z,17.24
2023-06-09T23:58:53.966Z,17.13
